Time;durP1;ratioP1;P1;durP2;ratioP2;P2;SDS_P1;SDS_P2;PMS_P1;PMS_P2;Temp;Humidity;BMP_temperature;BMP_pressure;BME280_temperature;BME280_humidity;BME280_pressure;Samples;Min_cycle;Max_cycle;Signal;HPM_P1;HPM_P2
2021/07/12 00:02:13;;;;;;;9.93;7.78;;;;;;;18.26;83.23;95690.14;1763991;81;21003;-59
2021/07/12 00:04:39;;;;;;;10.08;7.80;;;;;;;18.16;82.84;95684.36;1763823;81;21017;-59
2021/07/12 00:07:06;;;;;;;9.48;8.48;;;;;;;18.08;82.89;95677.19;1763563;81;21524;-59
2021/07/12 00:09:32;;;;;;;11.28;8.08;;;;;;;18.02;83.04;95679.30;1763894;81;21010;-59
2021/07/12 00:11:59;;;;;;;13.40;8.63;;;;;;;17.97;83.77;95677.27;1763881;81;21504;-59
2021/07/12 00:14:25;;;;;;;11.20;7.58;;;;;;;17.93;83.63;95680.56;1764011;81;21441;-59
2021/07/12 00:16:52;;;;;;;14.83;8.60;;;;;;;18.00;83.74;95680.69;1764092;81;21014;-59
2021/07/12 00:19:19;;;;;;;18.25;8.93;;;;;;;17.96;83.14;95680.42;1764002;81;21448;-59
2021/07/12 00:21:46;;;;;;;9.00;8.18;;;;;;;17.92;83.04;95676.18;1763779;81;21098;-59
2021/07/12 00:24:13;;;;;;;12.13;8.43;;;;;;;17.84;83.65;95676.53;1767754;81;21500;-59
2021/07/12 00:26:40;;;;;;;11.63;8.50;;;;;;;17.91;84.02;95676.62;1770558;81;21054;-59
2021/07/12 00:29:07;;;;;;;10.23;7.58;;;;;;;18.00;84.00;95675.34;1738481;81;21058;-59
2021/07/12 00:31:33;;;;;;;11.50;7.50;;;;;;;18.02;83.54;95678.81;1770554;81;20971;-59
2021/07/12 00:34:02;;;;;;;9.45;7.75;;;;;;;17.91;82.60;95681.96;1770706;81;21036;-59
2021/07/12 00:36:29;;;;;;;10.72;8.78;;;;;;;17.79;82.82;95678.95;1770185;81;21137;-59
2021/07/12 00:38:56;;;;;;;11.90;7.90;;;;;;;17.73;83.06;95678.30;1771093;81;21432;-59
2021/07/12 00:41:23;;;;;;;13.22;8.13;;;;;;;17.74;83.26;95680.05;1770280;81;21074;-59
2021/07/12 00:43:51;;;;;;;14.80;8.05;;;;;;;17.70;83.38;95687.79;1770613;81;21018;-59
2021/07/12 00:46:19;;;;;;;9.73;7.87;;;;;;;17.59;83.10;95682.52;1770827;81;21503;-59
2021/07/12 00:48:45;;;;;;;10.78;8.15;;;;;;;17.49;83.25;95682.95;1770861;81;21037;-59
2021/07/12 00:51:14;;;;;;;9.70;8.60;;;;;;;17.51;83.28;95681.53;1770382;81;21093;-59
2021/07/12 00:53:41;;;;;;;16.80;7.80;;;;;;;17.48;83.22;95682.53;1770869;81;21480;-59
2021/07/12 00:56:09;;;;;;;9.60;7.83;;;;;;;17.43;83.34;95683.20;1770577;81;21077;-59
2021/07/12 00:58:36;;;;;;;8.73;7.80;;;;;;;17.38;83.36;95680.35;1770754;81;21456;-59
2021/07/12 01:01:05;;;;;;;12.65;8.38;;;;;;;17.25;83.15;95672.02;1763417;81;21018;-59
2021/07/12 01:03:33;;;;;;;11.50;8.48;;;;;;;17.28;83.93;95680.74;1770697;81;21490;-59
2021/07/12 01:06:03;;;;;;;12.88;7.55;;;;;;;17.32;83.77;95684.63;1770738;81;21098;-62
2021/07/12 01:08:32;;;;;;;9.43;7.58;;;;;;;17.28;83.51;95679.41;1770670;81;21026;-59
2021/07/12 01:11:21;;;;;;;9.48;8.48;;;;;;;17.24;83.95;95681.83;1770276;81;20995;-59
2021/07/12 01:13:59;;;;;;;8.50;7.70;;;;;;;17.13;83.86;95685.41;1770353;81;21049;-59
2021/07/12 01:16:56;;;;;;;9.70;8.20;;;;;;;17.13;83.86;95685.41;1770543;81;21022;-59
2021/07/12 01:20:07;;;;;;;11.57;7.67;;;;;;;17.21;84.52;95692.63;1770581;81;20974;-59
2021/07/12 01:22:52;;;;;;;14.53;8.35;;;;;;;17.27;84.23;95688.35;1769777;81;21118;-59
2021/07/12 01:25:50;;;;;;;10.98;7.45;;;;;;;17.25;84.02;95685.35;1763695;81;21069;-59
2021/07/12 01:28:54;;;;;;;9.78;7.50;;;;;;;17.18;83.37;95689.22;1764055;81;21472;-59
2021/07/12 01:31:27;;;;;;;;;;;;;;;17.05;83.34;95685.73;1766557;81;20990;-59
2021/07/12 01:34:17;;;;;;;9.83;6.75;;;;;;;16.95;83.44;95688.39;1764607;81;20134;-59
2021/07/12 01:36:53;;;;;;;11.80;7.55;;;;;;;16.97;83.69;95685.67;1763309;81;22342;-59
2021/07/12 01:39:27;;;;;;;8.95;8.08;;;;;;;16.86;83.26;95683.47;1764061;81;21030;-59
2021/07/12 01:42:24;;;;;;;8.73;7.62;;;;;;;16.90;83.66;95685.05;1731407;81;21057;-59
2021/07/12 01:45:08;;;;;;;10.80;7.42;;;;;;;16.90;83.66;95685.05;1763619;81;21078;-59
2021/07/12 01:48:11;;;;;;;9.23;7.37;;;;;;;16.89;83.68;95694.47;1763600;81;21030;-59
2021/07/12 01:50:54;;;;;;;13.90;8.50;;;;;;;16.86;83.56;95691.47;1763573;81;21058;-59
2021/07/12 01:53:54;;;;;;;10.35;7.08;;;;;;;16.75;83.29;95685.19;1763800;81;21010;-59
2021/07/12 01:56:55;;;;;;;14.10;7.95;;;;;;;16.80;83.76;95681.91;1763577;81;21138;-59
2021/07/12 01:59:31;;;;;;;21.27;9.48;;;;;;;16.72;83.88;95687.13;1755325;81;21006;-59
2021/07/12 02:02:00;;;;;;;12.95;7.58;;;;;;;16.79;84.55;95691.31;1763529;81;21082;-59
2021/07/12 02:04:29;;;;;;;13.75;7.53;;;;;;;16.77;84.23;95693.13;1735963;81;21006;-59
2021/07/12 02:06:58;;;;;;;10.43;7.65;;;;;;;16.57;83.81;95683.29;1760849;81;21023;-59
2021/07/12 02:09:28;;;;;;;10.98;7.92;;;;;;;16.57;83.81;95683.29;1763818;81;21049;-59
2021/07/12 02:11:59;;;;;;;7.80;6.92;;;;;;;16.62;84.30;95695.95;1763839;81;20990;-59
2021/07/12 02:14:29;;;;;;;11.48;7.50;;;;;;;16.61;84.37;95688.44;1763891;81;21014;-59
2021/07/12 02:17:01;;;;;;;10.25;7.30;;;;;;;16.62;84.20;95694.63;1764111;81;21546;-59
2021/07/12 02:19:31;;;;;;;8.83;7.25;;;;;;;16.55;83.82;95683.34;1763765;81;20983;-60
2021/07/12 02:22:01;;;;;;;12.20;7.58;;;;;;;16.54;83.60;95695.41;1763814;81;21062;-59
2021/07/12 02:24:34;;;;;;;9.43;7.95;;;;;;;16.50;83.65;95696.45;1761849;81;20998;-59
2021/07/12 02:27:02;;;;;;;12.65;7.80;;;;;;;16.37;84.21;95690.75;1763706;81;21058;-59
2021/07/12 02:29:32;;;;;;;11.40;7.78;;;;;;;16.37;84.21;95690.75;1763856;81;21058;-59
2021/07/12 02:32:00;;;;;;;10.00;8.00;;;;;;;16.37;84.33;95695.60;1763655;81;21118;-59
2021/07/12 02:34:29;;;;;;;14.13;7.22;;;;;;;16.47;84.70;95700.10;1763365;81;21517;-59
2021/07/12 02:36:58;;;;;;;8.78;7.30;;;;;;;16.42;83.91;95697.62;1735518;81;21535;-59
2021/07/12 02:39:32;;;;;;;8.18;7.22;;;;;;;16.44;84.13;95698.90;1762668;81;21018;-59
2021/07/12 02:42:02;;;;;;;9.45;7.33;;;;;;;16.48;84.12;95695.20;1763055;81;21050;-59
2021/07/12 02:44:32;;;;;;;8.40;6.90;;;;;;;16.51;83.94;95696.40;1736022;81;21010;-59
2021/07/12 02:46:59;;;;;;;10.85;7.50;;;;;;;16.44;83.41;95697.57;1763810;81;21082;-59
2021/07/12 02:49:28;;;;;;;8.93;7.35;;;;;;;16.25;83.92;95704.54;1763838;81;20998;-59
2021/07/12 02:52:09;;;;;;;13.08;7.03;;;;;;;16.25;83.92;95704.54;1763425;81;21030;-59
2021/07/12 02:54:43;;;;;;;14.58;7.40;;;;;;;16.29;83.84;95707.03;1763726;81;21022;-59
2021/07/12 02:57:12;;;;;;;9.53;7.33;;;;;;;16.31;83.81;95703.84;1763797;81;21110;-59
2021/07/12 02:59:40;;;;;;;12.28;7.80;;;;;;;16.25;83.99;95701.41;1764013;81;21053;-59
2021/07/12 03:02:06;;;;;;;10.38;7.40;;;;;;;16.25;83.99;95701.41;1763407;81;21081;-59
2021/07/12 03:04:34;;;;;;;14.68;8.13;;;;;;;16.29;84.35;95707.50;1763820;81;21042;-59
2021/07/12 03:07:06;;;;;;;11.57;7.45;;;;;;;16.31;84.86;95709.17;1763806;81;21049;-59
2021/07/12 03:09:37;;;;;;;9.38;7.55;;;;;;;16.32;84.71;95705.56;1763816;81;21504;-59
2021/07/12 03:12:09;;;;;;;11.18;8.43;;;;;;;16.36;84.78;95708.53;1763683;81;21074;-59
2021/07/12 03:14:52;;;;;;;10.20;7.75;;;;;;;16.48;84.84;95704.96;1763810;81;21031;-59
2021/07/12 03:17:21;;;;;;;8.43;7.30;;;;;;;16.57;83.86;95700.13;1763456;81;21042;-59
2021/07/12 03:19:51;;;;;;;9.18;7.22;;;;;;;16.57;83.86;95700.13;1763876;81;21030;-59
2021/07/12 03:22:19;;;;;;;12.40;6.85;;;;;;;16.55;83.25;95713.11;1763656;81;21061;-59
2021/07/12 03:24:50;;;;;;;10.10;6.87;;;;;;;16.46;83.43;95715.69;1763355;81;21113;-59
2021/07/12 03:27:21;;;;;;;8.43;6.67;;;;;;;16.40;83.30;95718.58;1763666;81;21019;-59
2021/07/12 03:29:50;;;;;;;7.90;7.10;;;;;;;16.40;83.56;95719.47;1736157;81;20983;-59
2021/07/12 03:32:27;;;;;;;12.35;7.58;;;;;;;16.50;84.75;95712.43;1763820;81;20987;-59
2021/07/12 03:34:57;;;;;;;7.90;7.10;;;;;;;16.50;84.75;95712.43;1763777;81;21109;-59
2021/07/12 03:37:26;;;;;;;9.15;7.33;;;;;;;16.63;84.44;95719.88;1763575;81;21092;-58
2021/07/12 03:39:53;;;;;;;9.45;7.15;;;;;;;16.63;84.44;95719.88;1763633;81;21031;-59
2021/07/12 03:42:21;;;;;;;8.23;7.42;;;;;;;16.61;84.92;95713.75;1763659;81;21133;-59
2021/07/12 03:44:51;;;;;;;9.05;7.35;;;;;;;16.91;84.29;95720.56;1763832;81;21077;-59
2021/07/12 03:47:30;;;;;;;7.55;6.85;;;;;;;16.91;84.29;95720.56;1763658;81;21113;-59
2021/07/12 03:50:12;;;;;;;9.30;7.53;;;;;;;16.97;84.13;95719.85;1764036;81;21054;-59
2021/07/12 03:52:52;;;;;;;9.05;7.17;;;;;;;17.12;83.90;95717.02;1763891;81;21014;-59
2021/07/12 03:55:22;;;;;;;10.85;7.25;;;;;;;17.12;83.14;95714.34;1763846;81;20967;-59
2021/07/12 03:57:50;;;;;;;7.70;7.00;;;;;;;17.25;83.45;95709.36;1735912;81;21520;-59
2021/07/12 04:00:20;;;;;;;9.48;7.10;;;;;;;17.41;83.42;95713.55;1764095;81;21053;-59
2021/07/12 04:02:47;;;;;;;8.35;6.78;;;;;;;17.48;82.97;95706.55;1764017;81;21513;-58
2021/07/12 04:05:16;;;;;;;8.73;6.62;;;;;;;17.50;82.75;95707.35;1736273;81;20987;-59
2021/07/12 04:07:43;;;;;;;8.53;6.37;;;;;;;17.55;82.49;95702.29;1763807;81;21097;-59
2021/07/12 04:10:13;;;;;;;8.33;6.62;;;;;;;17.53;82.23;95709.02;1763872;81;21006;-59
2021/07/12 04:12:42;;;;;;;9.13;6.40;;;;;;;17.56;82.40;95701.34;1763831;81;21592;-59
2021/07/12 04:15:12;;;;;;;7.60;6.22;;;;;;;17.65;81.43;95700.47;1764005;81;21006;-59
2021/07/12 04:17:40;;;;;;;8.20;6.83;;;;;;;17.71;81.81;95696.66;1764045;81;21488;-59
2021/07/12 04:20:09;;;;;;;8.90;6.83;;;;;;;17.84;82.21;95701.00;1764220;81;21500;-59
2021/07/12 04:22:36;;;;;;;12.40;6.35;;;;;;;17.92;82.08;95697.06;1763766;81;21114;-59
2021/07/12 04:25:05;;;;;;;7.50;6.78;;;;;;;17.99;81.81;95702.11;1763774;81;21489;-59
2021/07/12 04:27:32;;;;;;;9.35;6.83;;;;;;;18.06;81.77;95702.22;1763898;81;21031;-59
2021/07/12 04:29:59;;;;;;;9.00;6.75;;;;;;;18.18;82.03;95699.46;1763657;81;21533;-59
2021/07/12 04:32:26;;;;;;;7.95;7.12;;;;;;;18.29;81.87;95702.00;1763614;81;21022;-58
2021/07/12 04:34:52;;;;;;;8.50;7.70;;;;;;;18.36;81.58;95703.92;1764046;81;20966;-59
2021/07/12 04:37:19;;;;;;;10.58;7.08;;;;;;;18.39;80.85;95703.77;1763975;81;21018;-59
2021/07/12 04:39:45;;;;;;;8.50;7.62;;;;;;;18.36;80.61;95701.25;1763683;81;21488;-61
2021/07/12 04:42:12;;;;;;;9.93;7.92;;;;;;;18.43;81.02;95699.17;1763852;81;20991;-59
2021/07/12 04:44:38;;;;;;;8.48;7.58;;;;;;;18.48;81.34;95700.67;1764021;81;21022;-59
2021/07/12 04:47:05;;;;;;;11.30;8.13;;;;;;;18.57;81.15;95698.91;1763849;81;21038;-59
2021/07/12 04:49:32;;;;;;;10.15;7.75;;;;;;;18.64;80.59;95704.80;1763832;81;21066;-59
2021/07/12 04:52:03;;;;;;;8.15;7.28;;;;;;;18.67;80.50;95699.77;1763950;81;21038;-59
2021/07/12 04:54:30;;;;;;;7.60;6.78;;;;;;;18.70;80.35;95696.98;1763598;81;21070;-59
2021/07/12 04:56:57;;;;;;;8.50;6.72;;;;;;;18.74;79.81;95694.05;1763888;81;20991;-59
2021/07/12 04:59:29;;;;;;;7.20;6.40;;;;;;;18.81;79.58;95700.00;1763607;81;21022;-59
2021/07/12 05:01:55;;;;;;;9.88;6.55;;;;;;;18.93;79.61;95697.20;1763828;81;21038;-59
2021/07/12 05:04:22;;;;;;;8.85;6.47;;;;;;;19.03;79.59;95691.31;1763873;81;21501;-59
2021/07/12 05:06:49;;;;;;;6.70;6.00;;;;;;;19.18;79.38;95687.00;1763585;81;21003;-59
2021/07/12 05:09:16;;;;;;;10.58;6.62;;;;;;;19.30;79.21;95692.65;1763387;81;21078;-58
2021/07/12 05:11:42;;;;;;;6.45;5.85;;;;;;;19.36;79.24;95690.53;1763960;81;21492;-59
2021/07/12 05:14:09;;;;;;;6.45;5.78;;;;;;;19.53;79.25;95691.00;1763674;81;21141;-59
2021/07/12 05:16:35;;;;;;;6.25;5.72;;;;;;;19.71;79.18;95688.34;1763502;81;21053;-59
2021/07/12 05:19:02;;;;;;;6.40;5.80;;;;;;;19.88;78.40;95688.28;1763568;81;21535;-59
2021/07/12 05:21:29;;;;;;;6.62;5.92;;;;;;;20.02;77.84;95691.56;1763990;81;21033;-59
2021/07/12 05:23:56;;;;;;;9.58;6.87;;;;;;;20.17;76.72;95689.39;1763437;81;21089;-59
2021/07/12 05:26:23;;;;;;;8.58;6.75;;;;;;;20.34;76.83;95676.88;1764000;81;20970;-59
2021/07/12 05:28:50;;;;;;;7.92;6.12;;;;;;;20.46;76.31;95686.44;1763910;81;21547;-59
2021/07/12 05:31:16;;;;;;;8.13;6.17;;;;;;;20.51;74.39;95680.80;1764077;81;20994;-59
2021/07/12 05:33:43;;;;;;;7.70;6.25;;;;;;;20.50;75.02;95685.30;1763574;81;21082;-59
2021/07/12 05:36:09;;;;;;;11.80;6.35;;;;;;;20.58;75.52;95681.36;1763808;81;21528;-59
2021/07/12 05:38:36;;;;;;;7.50;6.80;;;;;;;20.68;75.42;95678.53;1763442;81;21038;-59
2021/07/12 05:41:02;;;;;;;8.08;6.30;;;;;;;20.80;75.30;95672.95;1764106;81;21014;-59
2021/07/12 05:43:29;;;;;;;6.85;6.25;;;;;;;20.92;74.75;95673.59;1763510;81;21073;-59
2021/07/12 05:45:55;;;;;;;8.88;6.22;;;;;;;21.03;74.74;95678.32;1763997;81;21003;-59
2021/07/12 05:48:22;;;;;;;7.62;6.67;;;;;;;21.11;74.11;95679.59;1763814;81;21030;-59
2021/07/12 05:50:48;;;;;;;9.30;6.90;;;;;;;21.20;73.86;95687.59;1763484;81;21026;-59
2021/07/12 05:53:16;;;;;;;9.78;7.50;;;;;;;21.28;73.37;95683.96;1763838;81;20978;-59
2021/07/12 05:55:43;;;;;;;7.58;6.40;;;;;;;21.32;72.75;95684.66;1763725;81;21153;-59
2021/07/12 05:58:09;;;;;;;7.40;6.70;;;;;;;21.38;72.64;95685.63;1763479;81;21636;-59
2021/07/12 06:00:36;;;;;;;12.88;7.08;;;;;;;21.47;72.27;95689.14;1763671;81;21142;-59
2021/07/12 06:03:03;;;;;;;8.23;6.83;;;;;;;21.58;71.58;95688.48;1763528;81;21114;-59
2021/07/12 06:05:30;;;;;;;7.70;6.83;;;;;;;21.66;71.85;95682.65;1735743;81;21106;-59
2021/07/12 06:07:57;;;;;;;8.95;7.20;;;;;;;21.77;70.76;95688.21;1763877;81;21053;-59
2021/07/12 06:10:24;;;;;;;7.75;7.05;;;;;;;21.87;71.66;95684.48;1763732;81;21469;-59
2021/07/12 06:12:50;;;;;;;10.55;7.12;;;;;;;21.96;70.50;95687.95;1763517;81;21030;-59
2021/07/12 06:15:17;;;;;;;7.47;6.72;;;;;;;22.01;70.79;95685.36;1763858;81;21025;-59
2021/07/12 06:17:47;;;;;;;7.08;6.35;;;;;;;22.09;70.32;95686.22;1763924;81;21529;-59
2021/07/12 06:20:16;;;;;;;7.05;6.08;;;;;;;22.16;70.16;95686.22;1760980;81;20955;-59
2021/07/12 06:22:48;;;;;;;9.75;6.97;;;;;;;22.28;70.47;95681.94;1763804;81;21078;-59
2021/07/12 06:25:18;;;;;;;11.38;7.12;;;;;;;22.40;69.88;95677.59;1763545;81;21038;-59
2021/07/12 06:27:46;;;;;;;7.65;6.10;;;;;;;22.53;70.65;95671.83;1764034;81;21492;-59
2021/07/12 06:30:15;;;;;;;7.35;6.67;;;;;;;22.66;69.82;95675.44;1763858;81;21030;-59
2021/07/12 06:32:41;;;;;;;7.20;6.60;;;;;;;22.74;69.26;95676.28;1763800;81;21469;-59
2021/07/12 06:35:11;;;;;;;7.97;6.42;;;;;;;22.87;69.43;95676.33;1763949;81;21006;-59
2021/07/12 06:37:38;;;;;;;8.60;6.78;;;;;;;22.99;66.94;95664.80;1763929;81;21517;-59
2021/07/12 06:40:07;;;;;;;7.67;6.97;;;;;;;23.16;68.71;95673.09;1763609;81;21050;-59
2021/07/12 06:42:34;;;;;;;9.05;7.65;;;;;;;23.28;67.65;95672.73;1764006;81;21070;-59
2021/07/12 06:45:02;;;;;;;8.50;7.75;;;;;;;23.36;68.31;95666.82;1763776;81;21019;-59
2021/07/12 06:47:29;;;;;;;14.30;8.33;;;;;;;23.48;68.17;95671.37;1763464;81;21088;-59
2021/07/12 06:49:58;;;;;;;8.78;7.90;;;;;;;23.63;68.81;95664.92;1762875;81;20986;-59
2021/07/12 06:52:24;;;;;;;8.10;7.30;;;;;;;23.73;67.23;95667.39;1763569;81;21103;-59
2021/07/12 06:54:51;;;;;;;11.18;8.65;;;;;;;23.78;66.84;95668.42;1735559;81;21575;-59
2021/07/12 06:57:18;;;;;;;11.05;7.95;;;;;;;23.88;67.25;95667.30;1763775;81;21067;-59
2021/07/12 06:59:44;;;;;;;8.85;7.95;;;;;;;23.95;66.34;95673.98;1763902;81;20979;-59
2021/07/12 07:02:11;;;;;;;8.88;8.00;;;;;;;24.02;65.39;95662.30;1763526;81;21568;-59
2021/07/12 07:04:41;;;;;;;9.05;8.25;;;;;;;24.14;65.40;95669.48;1763873;81;21049;-59
2021/07/12 07:07:10;;;;;;;8.58;7.78;;;;;;;24.26;66.31;95678.54;1763875;81;21072;-59
2021/07/12 07:09:36;;;;;;;8.58;7.78;;;;;;;24.36;64.46;95668.81;1763787;81;21021;-59
2021/07/12 07:12:04;;;;;;;9.35;8.45;;;;;;;24.40;64.08;95669.84;1763520;81;21038;-59
2021/07/12 07:14:32;;;;;;;9.03;8.13;;;;;;;24.41;64.12;95672.89;1762731;81;20997;-59
2021/07/12 07:16:59;;;;;;;9.68;8.65;;;;;;;24.54;65.09;95672.90;1764094;81;21823;-59
2021/07/12 07:19:25;;;;;;;9.18;7.95;;;;;;;24.69;65.50;95665.52;1763973;81;21030;-59
2021/07/12 07:21:53;;;;;;;8.80;8.05;;;;;;;24.87;65.34;95665.99;1763739;81;21065;-59
2021/07/12 07:24:22;;;;;;;10.72;8.05;;;;;;;25.06;64.44;95666.84;1735916;81;21636;-59
2021/07/12 07:26:49;;;;;;;8.45;7.65;;;;;;;25.07;63.18;95667.20;1763591;81;21520;-59
2021/07/12 07:29:16;;;;;;;9.85;7.62;;;;;;;24.90;63.11;95667.14;1763592;81;21598;-59
2021/07/12 07:31:43;;;;;;;10.35;8.90;;;;;;;24.83;64.52;95673.97;1764235;81;21030;-59
2021/07/12 07:34:10;;;;;;;9.93;8.00;;;;;;;24.76;65.10;95673.55;1764026;81;21010;-59
2021/07/12 07:36:38;;;;;;;9.10;8.30;;;;;;;24.72;63.72;95676.58;1763470;81;21516;-59
2021/07/12 07:39:06;;;;;;;9.50;8.43;;;;;;;24.69;64.79;95674.11;1763984;81;21002;-59
2021/07/12 07:41:36;;;;;;;8.90;8.10;;;;;;;24.89;65.01;95684.30;1763958;81;21126;-59
2021/07/12 07:44:04;;;;;;;8.53;7.60;;;;;;;25.11;64.53;95678.66;1763905;81;20998;-59
2021/07/12 07:46:33;;;;;;;10.18;7.92;;;;;;;25.36;64.19;95683.11;1763810;81;21034;-59
2021/07/12 07:49:02;;;;;;;9.15;8.23;;;;;;;25.56;63.11;95677.03;1764037;81;21074;-60
2021/07/12 07:51:29;;;;;;;11.50;7.53;;;;;;;25.64;62.52;95669.19;1763914;81;20967;-59
2021/07/12 07:53:55;;;;;;;8.70;7.97;;;;;;;25.73;61.99;95672.15;1763845;81;21015;-59
2021/07/12 07:56:22;;;;;;;8.68;7.78;;;;;;;25.82;62.49;95669.59;1763746;81;21080;-60
2021/07/12 07:58:48;;;;;;;10.38;8.03;;;;;;;25.88;61.00;95671.02;1763878;81;20990;-59
2021/07/12 08:01:15;;;;;;;8.85;7.55;;;;;;;25.97;62.09;95671.63;1764057;81;21054;-59
2021/07/12 08:03:42;;;;;;;10.20;7.70;;;;;;;26.08;61.87;95671.66;1763590;81;21114;-59
2021/07/12 08:06:08;;;;;;;9.95;8.50;;;;;;;26.18;62.11;95670.41;1763643;81;21508;-59
2021/07/12 08:08:35;;;;;;;8.98;7.55;;;;;;;26.31;62.02;95676.59;1763912;81;21548;-59
2021/07/12 08:11:02;;;;;;;8.33;7.53;;;;;;;26.43;62.16;95677.92;1763896;81;20995;-59
2021/07/12 08:13:28;;;;;;;10.15;8.18;;;;;;;26.48;61.16;95683.32;1763963;81;21021;-59
2021/07/12 08:15:55;;;;;;;8.40;7.60;;;;;;;26.52;60.28;95676.73;1764018;81;21493;-59
2021/07/12 08:18:22;;;;;;;9.00;8.08;;;;;;;26.50;59.90;95681.36;1763643;81;21030;-59
2021/07/12 08:20:49;;;;;;;9.43;8.25;;;;;;;26.60;61.09;95679.30;1763695;81;20987;-59
2021/07/12 08:23:18;;;;;;;8.88;7.97;;;;;;;26.57;59.17;95676.36;1763634;81;21061;-59
2021/07/12 08:25:46;;;;;;;8.60;7.53;;;;;;;26.63;59.11;95679.05;1764817;81;21089;-59
2021/07/12 08:28:12;;;;;;;8.40;7.60;;;;;;;26.74;58.90;95684.47;1770798;81;21010;-59
2021/07/12 08:30:39;;;;;;;8.85;7.72;;;;;;;26.91;60.73;95685.77;1770512;81;21086;-59
2021/07/12 08:33:08;;;;;;;7.42;6.47;;;;;;;27.08;60.63;95680.33;1770751;81;21485;-59
2021/07/12 08:35:35;;;;;;;7.92;7.22;;;;;;;27.00;57.01;95685.52;1770968;81;21018;-59
2021/07/12 08:38:03;;;;;;;8.20;7.28;;;;;;;27.01;58.44;95681.81;1770942;81;21469;-59
2021/07/12 08:40:31;;;;;;;9.33;7.05;;;;;;;27.05;58.04;95681.44;1770369;81;21522;-59
2021/07/12 08:42:59;;;;;;;8.15;7.25;;;;;;;27.02;56.83;95680.34;1770617;81;21117;-59
2021/07/12 08:45:28;;;;;;;8.18;7.37;;;;;;;27.08;57.00;95680.33;1770878;81;21130;-60
2021/07/12 08:47:56;;;;;;;8.43;7.30;;;;;;;27.16;57.20;95688.66;1770852;81;21499;-59
2021/07/12 08:50:25;;;;;;;7.67;6.97;;;;;;;27.27;56.68;95687.33;1770511;81;21074;-59
2021/07/12 08:52:53;;;;;;;7.20;6.45;;;;;;;27.37;56.41;95690.98;1770724;81;21002;-59
2021/07/12 08:55:21;;;;;;;9.35;7.33;;;;;;;27.39;55.11;95688.13;1770443;81;21109;-59
2021/07/12 08:58:19;;;;;;;8.50;7.70;;;;;;;27.47;56.83;95681.58;1770697;81;21034;-59
2021/07/12 09:01:00;;;;;;;8.13;7.42;;;;;;;27.53;53.74;95681.05;1769888;81;21445;-59
2021/07/12 09:03:30;;;;;;;8.30;7.50;;;;;;;27.67;55.88;95672.23;1770799;81;21524;-59
2021/07/12 09:06:10;;;;;;;9.30;7.42;;;;;;;27.78;55.21;95671.69;1770809;81;21085;-59
2021/07/12 09:08:53;;;;;;;9.43;7.40;;;;;;;27.92;55.92;95671.89;1770613;81;21006;-59
2021/07/12 09:11:38;;;;;;;;;;;;;;;28.01;54.95;95678.36;1773205;81;21002;-59
2021/07/12 09:14:13;;;;;;;7.42;6.45;;;;;;;28.10;54.20;95677.56;1770611;81;20129;-59
2021/07/12 09:16:54;;;;;;;8.00;7.20;;;;;;;28.06;53.41;95670.68;1770746;81;21616;-59
2021/07/12 09:19:29;;;;;;;8.25;7.45;;;;;;;28.08;54.74;95673.27;1770796;81;20955;-60
2021/07/12 09:22:11;;;;;;;8.18;7.40;;;;;;;28.18;52.27;95671.47;1770004;81;20987;-59
2021/07/12 09:24:45;;;;;;;9.55;6.95;;;;;;;28.33;55.57;95676.05;1770703;81;21029;-59
2021/07/12 09:27:19;;;;;;;8.53;7.72;;;;;;;28.44;53.96;95677.30;1770028;81;21062;-59
2021/07/12 09:29:50;;;;;;;7.35;6.75;;;;;;;28.55;53.71;95672.30;1770695;81;21005;-59
2021/07/12 09:32:22;;;;;;;8.83;7.03;;;;;;;28.68;52.32;95671.08;1770671;81;21547;-60
2021/07/12 09:34:55;;;;;;;7.63;6.93;;;;;;;28.65;50.77;95672.72;1769723;81;21563;-59
2021/07/12 09:37:22;;;;;;;8.20;7.40;;;;;;;28.62;52.85;95674.83;1770723;81;21476;-59
2021/07/12 09:39:51;;;;;;;7.85;6.80;;;;;;;28.71;51.60;95671.81;1770825;81;20998;-59
2021/07/12 09:42:24;;;;;;;7.45;6.75;;;;;;;28.94;51.60;95672.45;1770424;81;21036;-59
2021/07/12 09:45:00;;;;;;;8.48;7.60;;;;;;;29.06;51.42;95674.08;1770681;81;21013;-59
2021/07/12 09:47:29;;;;;;;7.70;6.97;;;;;;;29.11;50.83;95674.02;1770637;81;21074;-60
2021/07/12 09:50:21;;;;;;;7.65;6.90;;;;;;;28.84;49.24;95672.41;1770591;81;21040;-59
2021/07/12 09:52:55;;;;;;;12.65;7.08;;;;;;;28.56;50.52;95679.47;1770920;81;21090;-59
2021/07/12 09:55:30;;;;;;;8.35;7.35;;;;;;;28.29;50.35;95674.59;1770585;81;21014;-59
2021/07/12 09:58:16;;;;;;;7.95;7.25;;;;;;;28.19;50.90;95675.89;1770585;81;21019;-59
2021/07/12 10:00:54;;;;;;;13.53;6.95;;;;;;;28.43;50.97;95660.16;1770103;81;21102;-59
2021/07/12 10:03:23;;;;;;;9.10;7.78;;;;;;;28.36;52.18;95667.62;1770413;81;21042;-60
2021/07/12 10:05:52;;;;;;;9.10;7.22;;;;;;;28.39;52.75;95656.50;1770338;81;21084;-59
2021/07/12 10:08:19;;;;;;;7.75;6.92;;;;;;;28.77;55.14;95651.73;1770705;81;20983;-59
2021/07/12 10:10:49;;;;;;;12.73;7.37;;;;;;;29.13;53.63;95650.76;1770482;81;21042;-59
2021/07/12 10:13:15;;;;;;;9.43;7.12;;;;;;;29.26;48.98;95653.23;1770305;81;21026;-59
2021/07/12 10:15:41;;;;;;;7.70;7.00;;;;;;;29.25;49.48;95656.42;1770335;81;20978;-59
2021/07/12 10:18:09;;;;;;;7.47;6.78;;;;;;;29.36;48.49;95664.08;1770477;81;21021;-59
2021/07/12 10:20:37;;;;;;;7.58;6.67;;;;;;;29.51;51.15;95664.90;1770706;81;20998;-59
2021/07/12 10:23:07;;;;;;;7.40;6.70;;;;;;;29.86;49.54;95674.36;1770836;81;21025;-59
2021/07/12 10:25:36;;;;;;;15.35;7.10;;;;;;;30.03;49.33;95672.73;1770391;81;21472;-59
2021/07/12 10:28:08;;;;;;;8.95;6.85;;;;;;;30.28;49.66;95673.15;1770629;81;20995;-60
2021/07/12 10:30:47;;;;;;;6.97;6.20;;;;;;;30.24;49.36;95684.84;1770956;81;21496;-59
2021/07/12 10:33:18;;;;;;;6.08;5.10;;;;;;;29.84;47.27;95683.67;1770731;81;21522;-60
2021/07/12 10:35:52;;;;;;;7.08;5.42;;;;;;;29.12;43.80;95693.88;1770545;81;21065;-59
2021/07/12 10:38:25;;;;;;;6.15;5.33;;;;;;;28.49;44.51;95699.50;1770521;81;21101;-59
2021/07/12 10:41:01;;;;;;;7.78;5.70;;;;;;;28.11;46.65;95687.41;1770586;81;21065;-59
2021/07/12 10:43:48;;;;;;;6.60;5.85;;;;;;;27.83;50.19;95676.25;1770685;81;21029;-59
2021/07/12 10:46:30;;;;;;;6.42;5.78;;;;;;;27.71;50.61;95670.98;1769555;81;21517;-59
2021/07/12 10:49:03;;;;;;;;;;;;;;;27.45;49.31;95678.14;1773305;81;21096;-59
2021/07/12 10:51:37;;;;;;;8.40;5.08;;;;;;;27.13;51.69;95678.09;1770587;81;20098;-59
2021/07/12 10:54:16;;;;;;;5.67;5.17;;;;;;;26.82;49.95;95683.34;1771035;81;21484;-59
2021/07/12 10:56:54;;;;;;;9.50;5.08;;;;;;;26.56;51.40;95684.12;1770771;81;21022;-59
2021/07/12 10:59:33;;;;;;;5.45;5.05;;;;;;;26.38;51.67;95682.34;1770692;81;21058;-59
2021/07/12 11:02:05;;;;;;;9.43;6.05;;;;;;;26.15;53.12;95682.83;1770491;81;21073;-59
2021/07/12 11:04:39;;;;;;;6.65;5.42;;;;;;;25.98;55.17;95680.59;1754558;81;21034;-59
2021/07/12 11:07:10;;;;;;;6.50;5.00;;;;;;;25.85;56.35;95686.09;1770597;81;21022;-59
2021/07/12 11:10:00;;;;;;;6.50;4.92;;;;;;;25.56;56.84;95693.73;1770708;81;21042;-59
2021/07/12 11:12:34;;;;;;;8.15;5.00;;;;;;;25.38;57.78;95695.52;1770756;81;20990;-59
2021/07/12 11:15:27;;;;;;;6.80;5.30;;;;;;;25.12;56.07;95692.52;1770873;81;21479;-59
2021/07/12 11:18:03;;;;;;;8.68;5.03;;;;;;;24.83;55.23;95695.06;1770427;81;21472;-59
2021/07/12 11:20:56;;;;;;;8.73;4.50;;;;;;;24.65;55.65;95683.42;1770659;81;21021;-59
2021/07/12 11:23:55;;;;;;;5.20;4.42;;;;;;;24.53;56.14;95682.47;1770818;81;21010;-59
2021/07/12 11:26:27;;;;;;;6.37;4.78;;;;;;;24.38;56.41;95666.88;1764487;81;21488;-60
2021/07/12 11:29:00;;;;;;;6.78;4.78;;;;;;;24.21;56.78;95663.18;1770683;81;21034;-59
2021/07/12 11:31:56;;;;;;;5.30;4.80;;;;;;;24.12;57.25;95657.97;1770913;81;21045;-59
2021/07/12 11:34:39;;;;;;;8.73;4.87;;;;;;;24.06;56.63;95657.90;1770351;81;21497;-59
2021/07/12 11:37:12;;;;;;;7.12;5.20;;;;;;;24.04;58.29;95658.52;1764323;81;21006;-59
2021/07/12 11:39:54;;;;;;;6.05;4.85;;;;;;;23.95;58.93;95662.71;1770782;81;20987;-59
2021/07/12 11:42:34;;;;;;;6.15;5.17;;;;;;;23.88;59.24;95666.80;1769591;81;21030;-59
2021/07/12 11:45:09;;;;;;;5.78;5.28;;;;;;;23.88;60.40;95668.64;1770916;81;21516;-59
2021/07/12 11:48:00;;;;;;;7.47;5.40;;;;;;;23.87;61.97;95672.32;1770837;81;21022;-59
2021/07/12 11:50:32;;;;;;;14.90;7.70;;;;;;;23.77;61.98;95668.05;1768788;81;21090;-59
2021/07/12 11:53:07;;;;;;;7.72;6.15;;;;;;;23.71;63.11;95667.08;1770878;81;21002;-59